sensor_id;sensor_type;location;lat;lon;timestamp;P1;durP1;ratioP1;P2;durP2;ratioP2
57858;SDS011;49153;45.568;11.894;2022-08-03T00:01:04;2.00;;;1.83;;
57858;SDS011;49153;45.568;11.894;2022-08-03T00:03:30;2.33;;;1.63;;
57858;SDS011;49153;45.568;11.894;2022-08-03T00:05:55;3.97;;;2.00;;
57858;SDS011;49153;45.568;11.894;2022-08-03T00:08:21;2.75;;;2.10;;
57858;SDS011;49153;45.568;11.894;2022-08-03T00:10:46;3.08;;;2.00;;
57858;SDS011;49153;45.568;11.894;2022-08-03T00:13:12;2.10;;;1.90;;
57858;SDS011;49153;45.568;11.894;2022-08-03T00:15:38;2.17;;;1.98;;
57858;SDS011;49153;45.568;11.894;2022-08-03T00:18:05;2.25;;;1.65;;
57858;SDS011;49153;45.568;11.894;2022-08-03T00:20:30;2.30;;;1.95;;
57858;SDS011;49153;45.568;11.894;2022-08-03T00:22:56;2.88;;;1.92;;
57858;SDS011;49153;45.568;11.894;2022-08-03T00:25:21;2.33;;;1.88;;
57858;SDS011;49153;45.568;11.894;2022-08-03T00:27:47;2.05;;;1.75;;
57858;SDS011;49153;45.568;11.894;2022-08-03T00:30:12;2.20;;;2.00;;
57858;SDS011;49153;45.568;11.894;2022-08-03T00:32:38;2.83;;;2.00;;
57858;SDS011;49153;45.568;11.894;2022-08-03T00:35:04;2.30;;;1.80;;
57858;SDS011;49153;45.568;11.894;2022-08-03T00:37:30;1.90;;;1.73;;
57858;SDS011;49153;45.568;11.894;2022-08-03T00:39:55;2.65;;;1.90;;
57858;SDS011;49153;45.568;11.894;2022-08-03T00:42:20;2.67;;;2.00;;
57858;SDS011;49153;45.568;11.894;2022-08-03T00:44:46;2.05;;;1.85;;
57858;SDS011;49153;45.568;11.894;2022-08-03T00:47:11;2.30;;;2.10;;
57858;SDS011;49153;45.568;11.894;2022-08-03T00:49:37;2.25;;;2.05;;
57858;SDS011;49153;45.568;11.894;2022-08-03T00:52:05;3.05;;;1.85;;
57858;SDS011;49153;45.568;11.894;2022-08-03T00:54:33;2.50;;;1.80;;
57858;SDS011;49153;45.568;11.894;2022-08-03T00:56:59;3.63;;;1.92;;
57858;SDS011;49153;45.568;11.894;2022-08-03T00:59:25;2.10;;;1.90;;
57858;SDS011;49153;45.568;11.894;2022-08-03T01:01:52;2.17;;;1.90;;
57858;SDS011;49153;45.568;11.894;2022-08-03T01:04:18;2.40;;;2.05;;
57858;SDS011;49153;45.568;11.894;2022-08-03T01:06:57;2.50;;;2.03;;
57858;SDS011;49153;45.568;11.894;2022-08-03T01:12:31;2.97;;;2.30;;
57858;SDS011;49153;45.568;11.894;2022-08-03T01:15:18;4.00;;;2.38;;
57858;SDS011;49153;45.568;11.894;2022-08-03T01:17:55;2.67;;;2.15;;
57858;SDS011;49153;45.568;11.894;2022-08-03T01:20:25;2.53;;;2.15;;
57858;SDS011;49153;45.568;11.894;2022-08-03T01:26:20;3.33;;;2.25;;
57858;SDS011;49153;45.568;11.894;2022-08-03T01:31:35;2.33;;;2.13;;
57858;SDS011;49153;45.568;11.894;2022-08-03T01:34:05;3.85;;;2.40;;
57858;SDS011;49153;45.568;11.894;2022-08-03T01:36:37;3.08;;;2.50;;
57858;SDS011;49153;45.568;11.894;2022-08-03T01:39:08;3.58;;;2.75;;
57858;SDS011;49153;45.568;11.894;2022-08-03T01:41:41;4.32;;;2.60;;
57858;SDS011;49153;45.568;11.894;2022-08-03T01:44:12;3.67;;;2.47;;
57858;SDS011;49153;45.568;11.894;2022-08-03T01:46:39;4.65;;;2.35;;
57858;SDS011;49153;45.568;11.894;2022-08-03T01:49:06;2.95;;;2.40;;
57858;SDS011;49153;45.568;11.894;2022-08-03T01:51:36;2.67;;;2.45;;
57858;SDS011;49153;45.568;11.894;2022-08-03T01:54:06;2.95;;;2.30;;
57858;SDS011;49153;45.568;11.894;2022-08-03T01:56:35;4.45;;;2.20;;
57858;SDS011;49153;45.568;11.894;2022-08-03T01:59:02;3.85;;;2.53;;
57858;SDS011;49153;45.568;11.894;2022-08-03T02:01:29;2.65;;;2.28;;
57858;SDS011;49153;45.568;11.894;2022-08-03T02:03:56;2.45;;;2.25;;
57858;SDS011;49153;45.568;11.894;2022-08-03T02:06:23;4.60;;;2.58;;
57858;SDS011;49153;45.568;11.894;2022-08-03T02:08:50;3.08;;;2.78;;
57858;SDS011;49153;45.568;11.894;2022-08-03T02:11:19;2.80;;;2.50;;
57858;SDS011;49153;45.568;11.894;2022-08-03T02:13:45;2.90;;;2.60;;
57858;SDS011;49153;45.568;11.894;2022-08-03T02:16:12;3.85;;;2.63;;
57858;SDS011;49153;45.568;11.894;2022-08-03T02:18:39;3.00;;;2.35;;
57858;SDS011;49153;45.568;11.894;2022-08-03T02:21:06;6.07;;;2.80;;
57858;SDS011;49153;45.568;11.894;2022-08-03T02:23:34;4.18;;;2.50;;
57858;SDS011;49153;45.568;11.894;2022-08-03T02:26:02;2.67;;;2.35;;
57858;SDS011;49153;45.568;11.894;2022-08-03T02:28:33;2.70;;;2.30;;
57858;SDS011;49153;45.568;11.894;2022-08-03T02:31:04;2.67;;;2.47;;
57858;SDS011;49153;45.568;11.894;2022-08-03T02:33:36;3.65;;;2.45;;
57858;SDS011;49153;45.568;11.894;2022-08-03T02:36:05;2.97;;;2.30;;
57858;SDS011;49153;45.568;11.894;2022-08-03T02:38:35;3.53;;;2.53;;
57858;SDS011;49153;45.568;11.894;2022-08-03T02:41:04;3.10;;;2.60;;
57858;SDS011;49153;45.568;11.894;2022-08-03T02:43:33;2.87;;;2.63;;
57858;SDS011;49153;45.568;11.894;2022-08-03T02:46:01;2.90;;;2.40;;
57858;SDS011;49153;45.568;11.894;2022-08-03T02:48:27;3.65;;;2.55;;
57858;SDS011;49153;45.568;11.894;2022-08-03T02:50:55;3.72;;;2.42;;
57858;SDS011;49153;45.568;11.894;2022-08-03T02:53:23;4.63;;;2.30;;
57858;SDS011;49153;45.568;11.894;2022-08-03T02:55:50;3.00;;;2.50;;
57858;SDS011;49153;45.568;11.894;2022-08-03T02:58:18;3.28;;;2.22;;
57858;SDS011;49153;45.568;11.894;2022-08-03T03:00:47;3.08;;;2.20;;
57858;SDS011;49153;45.568;11.894;2022-08-03T03:03:15;2.55;;;2.22;;
57858;SDS011;49153;45.568;11.894;2022-08-03T03:05:42;2.47;;;2.05;;
57858;SDS011;49153;45.568;11.894;2022-08-03T03:08:11;3.00;;;2.35;;
57858;SDS011;49153;45.568;11.894;2022-08-03T03:10:38;2.90;;;2.42;;
57858;SDS011;49153;45.568;11.894;2022-08-03T03:13:05;2.65;;;2.28;;
57858;SDS011;49153;45.568;11.894;2022-08-03T03:15:32;2.80;;;2.50;;
57858;SDS011;49153;45.568;11.894;2022-08-03T03:18:01;2.80;;;2.60;;
57858;SDS011;49153;45.568;11.894;2022-08-03T03:20:27;4.53;;;2.63;;
57858;SDS011;49153;45.568;11.894;2022-08-03T03:22:53;3.95;;;2.40;;
57858;SDS011;49153;45.568;11.894;2022-08-03T03:25:20;2.92;;;2.60;;
57858;SDS011;49153;45.568;11.894;2022-08-03T03:27:45;4.05;;;2.72;;
57858;SDS011;49153;45.568;11.894;2022-08-03T03:30:13;3.65;;;2.65;;
57858;SDS011;49153;45.568;11.894;2022-08-03T03:32:38;4.20;;;2.75;;
57858;SDS011;49153;45.568;11.894;2022-08-03T03:35:04;2.83;;;2.58;;
57858;SDS011;49153;45.568;11.894;2022-08-03T03:37:31;3.70;;;2.58;;
57858;SDS011;49153;45.568;11.894;2022-08-03T03:39:57;4.43;;;2.67;;
57858;SDS011;49153;45.568;11.894;2022-08-03T03:42:24;4.88;;;2.80;;
57858;SDS011;49153;45.568;11.894;2022-08-03T03:44:50;5.18;;;2.80;;
57858;SDS011;49153;45.568;11.894;2022-08-03T03:47:15;3.20;;;2.65;;
57858;SDS011;49153;45.568;11.894;2022-08-03T03:49:41;3.60;;;2.38;;
57858;SDS011;49153;45.568;11.894;2022-08-03T03:52:07;4.15;;;2.70;;
57858;SDS011;49153;45.568;11.894;2022-08-03T03:54:43;3.55;;;2.42;;
57858;SDS011;49153;45.568;11.894;2022-08-03T03:57:09;3.10;;;2.70;;
57858;SDS011;49153;45.568;11.894;2022-08-03T03:59:39;3.08;;;2.42;;
57858;SDS011;49153;45.568;11.894;2022-08-03T04:02:06;4.32;;;2.80;;
57858;SDS011;49153;45.568;11.894;2022-08-03T04:04:33;2.95;;;2.40;;
57858;SDS011;49153;45.568;11.894;2022-08-03T04:07:17;3.40;;;2.35;;
57858;SDS011;49153;45.568;11.894;2022-08-03T04:10:03;3.38;;;2.45;;
57858;SDS011;49153;45.568;11.894;2022-08-03T04:12:53;4.18;;;2.70;;
57858;SDS011;49153;45.568;11.894;2022-08-03T04:15:22;5.65;;;2.50;;
57858;SDS011;49153;45.568;11.894;2022-08-03T04:17:49;4.32;;;2.58;;
57858;SDS011;49153;45.568;11.894;2022-08-03T04:20:18;3.80;;;2.55;;
57858;SDS011;49153;45.568;11.894;2022-08-03T04:22:45;2.35;;;2.10;;
57858;SDS011;49153;45.568;11.894;2022-08-03T04:25:15;2.93;;;2.30;;
57858;SDS011;49153;45.568;11.894;2022-08-03T04:27:43;5.47;;;2.88;;
57858;SDS011;49153;45.568;11.894;2022-08-03T04:30:11;3.17;;;2.20;;
57858;SDS011;49153;45.568;11.894;2022-08-03T04:32:39;3.80;;;2.50;;
57858;SDS011;49153;45.568;11.894;2022-08-03T04:35:07;5.63;;;2.60;;
57858;SDS011;49153;45.568;11.894;2022-08-03T04:37:54;5.88;;;2.63;;
57858;SDS011;49153;45.568;11.894;2022-08-03T04:40:24;3.10;;;2.22;;
57858;SDS011;49153;45.568;11.894;2022-08-03T04:42:54;3.47;;;2.20;;
57858;SDS011;49153;45.568;11.894;2022-08-03T04:45:21;2.50;;;2.17;;
57858;SDS011;49153;45.568;11.894;2022-08-03T04:47:47;2.25;;;2.00;;
57858;SDS011;49153;45.568;11.894;2022-08-03T04:50:14;2.55;;;2.35;;
57858;SDS011;49153;45.568;11.894;2022-08-03T04:52:40;2.47;;;2.25;;
57858;SDS011;49153;45.568;11.894;2022-08-03T04:55:06;3.60;;;2.60;;
57858;SDS011;49153;45.568;11.894;2022-08-03T04:57:31;2.40;;;2.05;;
57858;SDS011;49153;45.568;11.894;2022-08-03T04:59:57;3.15;;;2.13;;
57858;SDS011;49153;45.568;11.894;2022-08-03T05:02:22;3.15;;;2.25;;
57858;SDS011;49153;45.568;11.894;2022-08-03T05:04:48;2.50;;;2.28;;
57858;SDS011;49153;45.568;11.894;2022-08-03T05:07:14;3.67;;;2.35;;
57858;SDS011;49153;45.568;11.894;2022-08-03T05:09:41;3.33;;;2.28;;
57858;SDS011;49153;45.568;11.894;2022-08-03T05:12:07;2.97;;;2.28;;
57858;SDS011;49153;45.568;11.894;2022-08-03T05:14:33;3.90;;;2.15;;
57858;SDS011;49153;45.568;11.894;2022-08-03T05:17:01;3.30;;;2.13;;
57858;SDS011;49153;45.568;11.894;2022-08-03T05:19:27;4.53;;;2.08;;
57858;SDS011;49153;45.568;11.894;2022-08-03T05:21:53;5.28;;;2.35;;
57858;SDS011;49153;45.568;11.894;2022-08-03T05:24:18;3.65;;;2.13;;
57858;SDS011;49153;45.568;11.894;2022-08-03T05:26:44;4.00;;;2.30;;
57858;SDS011;49153;45.568;11.894;2022-08-03T05:29:09;3.90;;;2.10;;
57858;SDS011;49153;45.568;11.894;2022-08-03T05:31:35;5.63;;;2.33;;
57858;SDS011;49153;45.568;11.894;2022-08-03T05:34:00;3.83;;;2.40;;
57858;SDS011;49153;45.568;11.894;2022-08-03T05:36:25;2.20;;;1.98;;
57858;SDS011;49153;45.568;11.894;2022-08-03T05:38:51;2.45;;;2.13;;
57858;SDS011;49153;45.568;11.894;2022-08-03T05:41:16;2.55;;;2.35;;
57858;SDS011;49153;45.568;11.894;2022-08-03T05:43:42;2.97;;;2.15;;
57858;SDS011;49153;45.568;11.894;2022-08-03T05:46:08;3.75;;;2.20;;
57858;SDS011;49153;45.568;11.894;2022-08-03T05:48:34;3.28;;;2.60;;
57858;SDS011;49153;45.568;11.894;2022-08-03T05:50:59;2.78;;;2.20;;
57858;SDS011;49153;45.568;11.894;2022-08-03T05:53:25;5.40;;;2.47;;
57858;SDS011;49153;45.568;11.894;2022-08-03T05:55:50;4.43;;;2.75;;
57858;SDS011;49153;45.568;11.894;2022-08-03T05:58:16;2.88;;;2.50;;
57858;SDS011;49153;45.568;11.894;2022-08-03T06:00:41;4.07;;;2.75;;
57858;SDS011;49153;45.568;11.894;2022-08-03T06:03:07;2.88;;;2.40;;
57858;SDS011;49153;45.568;11.894;2022-08-03T06:05:32;3.17;;;2.40;;
57858;SDS011;49153;45.568;11.894;2022-08-03T06:08:00;3.13;;;2.30;;
57858;SDS011;49153;45.568;11.894;2022-08-03T06:10:26;5.40;;;2.70;;
57858;SDS011;49153;45.568;11.894;2022-08-03T06:12:52;3.22;;;2.50;;
57858;SDS011;49153;45.568;11.894;2022-08-03T06:15:17;4.50;;;2.50;;
57858;SDS011;49153;45.568;11.894;2022-08-03T06:17:43;3.47;;;2.88;;
57858;SDS011;49153;45.568;11.894;2022-08-03T06:20:12;3.72;;;2.63;;
57858;SDS011;49153;45.568;11.894;2022-08-03T06:22:40;3.67;;;2.60;;
57858;SDS011;49153;45.568;11.894;2022-08-03T06:25:07;3.75;;;2.55;;
57858;SDS011;49153;45.568;11.894;2022-08-03T06:27:33;2.50;;;2.15;;
57858;SDS011;49153;45.568;11.894;2022-08-03T06:29:58;4.07;;;2.20;;
57858;SDS011;49153;45.568;11.894;2022-08-03T06:32:24;4.55;;;2.55;;
57858;SDS011;49153;45.568;11.894;2022-08-03T06:34:49;4.10;;;2.20;;
57858;SDS011;49153;45.568;11.894;2022-08-03T06:37:15;2.70;;;2.20;;
57858;SDS011;49153;45.568;11.894;2022-08-03T06:39:40;2.72;;;2.10;;
57858;SDS011;49153;45.568;11.894;2022-08-03T06:42:06;4.97;;;2.80;;
57858;SDS011;49153;45.568;11.894;2022-08-03T06:44:31;4.78;;;2.22;;
57858;SDS011;49153;45.568;11.894;2022-08-03T06:46:57;2.85;;;2.30;;
57858;SDS011;49153;45.568;11.894;2022-08-03T06:49:22;3.58;;;2.20;;
57858;SDS011;49153;45.568;11.894;2022-08-03T06:51:48;2.78;;;2.42;;
57858;SDS011;49153;45.568;11.894;2022-08-03T06:54:21;4.38;;;2.17;;
57858;SDS011;49153;45.568;11.894;2022-08-03T06:56:48;3.38;;;2.25;;
57858;SDS011;49153;45.568;11.894;2022-08-03T06:59:14;2.47;;;2.28;;
57858;SDS011;49153;45.568;11.894;2022-08-03T07:01:39;2.30;;;2.05;;
57858;SDS011;49153;45.568;11.894;2022-08-03T07:04:05;3.90;;;2.22;;
57858;SDS011;49153;45.568;11.894;2022-08-03T07:06:30;3.28;;;2.20;;
57858;SDS011;49153;45.568;11.894;2022-08-03T07:08:56;4.43;;;2.35;;
57858;SDS011;49153;45.568;11.894;2022-08-03T07:11:22;2.70;;;2.25;;
57858;SDS011;49153;45.568;11.894;2022-08-03T07:13:47;2.50;;;2.30;;
57858;SDS011;49153;45.568;11.894;2022-08-03T07:16:12;4.50;;;2.58;;
57858;SDS011;49153;45.568;11.894;2022-08-03T07:18:38;3.92;;;2.70;;
57858;SDS011;49153;45.568;11.894;2022-08-03T07:21:04;4.82;;;2.42;;
57858;SDS011;49153;45.568;11.894;2022-08-03T07:23:29;3.90;;;2.30;;
57858;SDS011;49153;45.568;11.894;2022-08-03T07:25:55;3.10;;;2.38;;
57858;SDS011;49153;45.568;11.894;2022-08-03T07:28:20;3.92;;;2.38;;
57858;SDS011;49153;45.568;11.894;2022-08-03T07:30:46;4.55;;;2.22;;
57858;SDS011;49153;45.568;11.894;2022-08-03T07:33:11;4.35;;;2.47;;
57858;SDS011;49153;45.568;11.894;2022-08-03T07:35:37;2.88;;;2.38;;
57858;SDS011;49153;45.568;11.894;2022-08-03T07:38:03;2.80;;;2.40;;
57858;SDS011;49153;45.568;11.894;2022-08-03T07:40:28;2.97;;;2.30;;
57858;SDS011;49153;45.568;11.894;2022-08-03T07:42:54;4.10;;;2.28;;
57858;SDS011;49153;45.568;11.894;2022-08-03T07:45:20;4.75;;;2.30;;
57858;SDS011;49153;45.568;11.894;2022-08-03T07:47:47;2.38;;;2.17;;
57858;SDS011;49153;45.568;11.894;2022-08-03T07:50:13;3.28;;;2.10;;
57858;SDS011;49153;45.568;11.894;2022-08-03T07:52:38;2.30;;;2.10;;
57858;SDS011;49153;45.568;11.894;2022-08-03T07:55:18;2.50;;;2.20;;
57858;SDS011;49153;45.568;11.894;2022-08-03T07:57:45;3.03;;;2.13;;
57858;SDS011;49153;45.568;11.894;2022-08-03T08:00:20;2.42;;;1.90;;
57858;SDS011;49153;45.568;11.894;2022-08-03T08:02:45;3.67;;;2.28;;
57858;SDS011;49153;45.568;11.894;2022-08-03T08:05:11;4.93;;;2.10;;
57858;SDS011;49153;45.568;11.894;2022-08-03T08:07:36;5.38;;;2.10;;
57858;SDS011;49153;45.568;11.894;2022-08-03T08:10:06;4.55;;;2.22;;
57858;SDS011;49153;45.568;11.894;2022-08-03T08:12:34;4.00;;;2.10;;
57858;SDS011;49153;45.568;11.894;2022-08-03T08:14:59;3.40;;;2.20;;
57858;SDS011;49153;45.568;11.894;2022-08-03T08:17:25;2.50;;;2.10;;
57858;SDS011;49153;45.568;11.894;2022-08-03T08:19:51;3.22;;;2.10;;
57858;SDS011;49153;45.568;11.894;2022-08-03T08:22:17;3.78;;;2.15;;
57858;SDS011;49153;45.568;11.894;2022-08-03T08:24:43;2.30;;;2.10;;
57858;SDS011;49153;45.568;11.894;2022-08-03T08:27:09;4.53;;;2.13;;
57858;SDS011;49153;45.568;11.894;2022-08-03T08:29:36;2.40;;;2.13;;
57858;SDS011;49153;45.568;11.894;2022-08-03T08:32:02;2.83;;;2.13;;
57858;SDS011;49153;45.568;11.894;2022-08-03T08:34:28;3.97;;;2.08;;
57858;SDS011;49153;45.568;11.894;2022-08-03T08:36:53;2.80;;;2.03;;
57858;SDS011;49153;45.568;11.894;2022-08-03T08:39:19;6.07;;;2.20;;
57858;SDS011;49153;45.568;11.894;2022-08-03T08:41:44;3.75;;;2.17;;
57858;SDS011;49153;45.568;11.894;2022-08-03T08:44:10;2.47;;;2.03;;
57858;SDS011;49153;45.568;11.894;2022-08-03T08:46:35;2.28;;;2.08;;
57858;SDS011;49153;45.568;11.894;2022-08-03T08:49:02;2.40;;;2.20;;
57858;SDS011;49153;45.568;11.894;2022-08-03T08:51:29;2.63;;;1.90;;
57858;SDS011;49153;45.568;11.894;2022-08-03T08:53:57;2.10;;;1.83;;
57858;SDS011;49153;45.568;11.894;2022-08-03T08:56:27;2.58;;;1.75;;
57858;SDS011;49153;45.568;11.894;2022-08-03T08:58:55;3.13;;;2.22;;
57858;SDS011;49153;45.568;11.894;2022-08-03T09:01:23;2.92;;;1.90;;
57858;SDS011;49153;45.568;11.894;2022-08-03T09:03:49;2.63;;;2.22;;
57858;SDS011;49153;45.568;11.894;2022-08-03T09:06:15;2.17;;;1.98;;
57858;SDS011;49153;45.568;11.894;2022-08-03T09:08:41;2.55;;;2.20;;
57858;SDS011;49153;45.568;11.894;2022-08-03T09:11:06;2.45;;;2.08;;
57858;SDS011;49153;45.568;11.894;2022-08-03T09:13:32;2.35;;;1.90;;
57858;SDS011;49153;45.568;11.894;2022-08-03T09:18:37;2.10;;;1.90;;
57858;SDS011;49153;45.568;11.894;2022-08-03T09:23:55;3.67;;;2.05;;
57858;SDS011;49153;45.568;11.894;2022-08-03T09:26:23;2.50;;;1.90;;
57858;SDS011;49153;45.568;11.894;2022-08-03T09:29:00;2.65;;;1.75;;
57858;SDS011;49153;45.568;11.894;2022-08-03T09:31:31;2.40;;;2.17;;
57858;SDS011;49153;45.568;11.894;2022-08-03T09:34:05;3.42;;;2.00;;
57858;SDS011;49153;45.568;11.894;2022-08-03T09:36:39;2.40;;;2.10;;
57858;SDS011;49153;45.568;11.894;2022-08-03T09:39:08;2.58;;;2.22;;
57858;SDS011;49153;45.568;11.894;2022-08-03T09:41:39;2.28;;;1.77;;
57858;SDS011;49153;45.568;11.894;2022-08-03T09:44:06;3.30;;;2.13;;
57858;SDS011;49153;45.568;11.894;2022-08-03T09:46:46;1.67;;;1.58;;
57858;SDS011;49153;45.568;11.894;2022-08-03T09:49:20;4.32;;;2.00;;
57858;SDS011;49153;45.568;11.894;2022-08-03T09:52:19;2.97;;;2.05;;
57858;SDS011;49153;45.568;11.894;2022-08-03T09:55:13;2.95;;;2.30;;
57858;SDS011;49153;45.568;11.894;2022-08-03T09:57:39;2.20;;;1.98;;
57858;SDS011;49153;45.568;11.894;2022-08-03T10:00:10;2.33;;;2.10;;
57858;SDS011;49153;45.568;11.894;2022-08-03T10:02:43;2.47;;;2.28;;
57858;SDS011;49153;45.568;11.894;2022-08-03T10:05:11;2.45;;;2.15;;
57858;SDS011;49153;45.568;11.894;2022-08-03T10:07:40;2.17;;;1.98;;
57858;SDS011;49153;45.568;11.894;2022-08-03T10:10:10;2.17;;;1.95;;
57858;SDS011;49153;45.568;11.894;2022-08-03T10:12:36;2.40;;;1.90;;
57858;SDS011;49153;45.568;11.894;2022-08-03T10:15:03;2.97;;;2.50;;
57858;SDS011;49153;45.568;11.894;2022-08-03T10:17:29;2.25;;;2.00;;
57858;SDS011;49153;45.568;11.894;2022-08-03T10:19:55;5.20;;;2.03;;
57858;SDS011;49153;45.568;11.894;2022-08-03T10:22:23;2.22;;;2.03;;
57858;SDS011;49153;45.568;11.894;2022-08-03T10:24:52;2.30;;;2.08;;
57858;SDS011;49153;45.568;11.894;2022-08-03T10:27:23;3.95;;;2.33;;
57858;SDS011;49153;45.568;11.894;2022-08-03T10:29:54;2.17;;;1.98;;
57858;SDS011;49153;45.568;11.894;2022-08-03T10:32:29;2.17;;;2.00;;
57858;SDS011;49153;45.568;11.894;2022-08-03T10:35:10;2.20;;;1.80;;
57858;SDS011;49153;45.568;11.894;2022-08-03T10:37:40;2.97;;;2.00;;
57858;SDS011;49153;45.568;11.894;2022-08-03T10:40:14;6.22;;;2.20;;
57858;SDS011;49153;45.568;11.894;2022-08-03T10:42:45;3.42;;;2.17;;
57858;SDS011;49153;45.568;11.894;2022-08-03T10:45:20;2.40;;;2.20;;
57858;SDS011;49153;45.568;11.894;2022-08-03T10:47:49;3.25;;;2.08;;
57858;SDS011;49153;45.568;11.894;2022-08-03T10:50:16;2.05;;;1.85;;
57858;SDS011;49153;45.568;11.894;2022-08-03T10:52:55;3.00;;;2.00;;
57858;SDS011;49153;45.568;11.894;2022-08-03T11:01:03;2.00;;;1.90;;
57858;SDS011;49153;45.568;11.894;2022-08-03T11:08:44;2.63;;;2.00;;
57858;SDS011;49153;45.568;11.894;2022-08-03T11:16:30;5.32;;;2.00;;
57858;SDS011;49153;45.568;11.894;2022-08-03T11:27:21;2.10;;;1.90;;
57858;SDS011;49153;45.568;11.894;2022-08-03T11:40:37;1.58;;;1.48;;
57858;SDS011;49153;45.568;11.894;2022-08-03T11:46:05;2.03;;;1.90;;
57858;SDS011;49153;45.568;11.894;2022-08-03T11:48:35;1.85;;;1.60;;
57858;SDS011;49153;45.568;11.894;2022-08-03T11:51:04;2.13;;;1.90;;
57858;SDS011;49153;45.568;11.894;2022-08-03T11:53:31;3.40;;;2.00;;
57858;SDS011;49153;45.568;11.894;2022-08-03T11:55:57;2.33;;;1.70;;
57858;SDS011;49153;45.568;11.894;2022-08-03T11:58:24;2.00;;;1.90;;
57858;SDS011;49153;45.568;11.894;2022-08-03T12:00:50;2.35;;;1.70;;
57858;SDS011;49153;45.568;11.894;2022-08-03T12:03:17;1.80;;;1.55;;
57858;SDS011;49153;45.568;11.894;2022-08-03T12:05:45;1.70;;;1.58;;
57858;SDS011;49153;45.568;11.894;2022-08-03T12:08:14;3.25;;;1.90;;
57858;SDS011;49153;45.568;11.894;2022-08-03T12:10:54;1.80;;;1.60;;
57858;SDS011;49153;45.568;11.894;2022-08-03T12:13:22;2.75;;;1.80;;
57858;SDS011;49153;45.568;11.894;2022-08-03T12:15:52;1.80;;;1.70;;
57858;SDS011;49153;45.568;11.894;2022-08-03T12:18:19;2.97;;;1.63;;
57858;SDS011;49153;45.568;11.894;2022-08-03T12:20:46;1.90;;;1.80;;
57858;SDS011;49153;45.568;11.894;2022-08-03T12:23:13;1.70;;;1.60;;
57858;SDS011;49153;45.568;11.894;2022-08-03T12:25:40;1.67;;;1.58;;
57858;SDS011;49153;45.568;11.894;2022-08-03T12:30:44;3.03;;;1.80;;
57858;SDS011;49153;45.568;11.894;2022-08-03T12:35:44;1.92;;;1.70;;
57858;SDS011;49153;45.568;11.894;2022-08-03T12:38:11;2.08;;;1.60;;
57858;SDS011;49153;45.568;11.894;2022-08-03T12:40:37;1.70;;;1.60;;
57858;SDS011;49153;45.568;11.894;2022-08-03T12:43:10;1.70;;;1.60;;
57858;SDS011;49153;45.568;11.894;2022-08-03T12:45:38;2.00;;;1.70;;
57858;SDS011;49153;45.568;11.894;2022-08-03T12:48:07;1.70;;;1.60;;
57858;SDS011;49153;45.568;11.894;2022-08-03T12:50:35;4.05;;;1.60;;
57858;SDS011;49153;45.568;11.894;2022-08-03T12:53:02;2.20;;;1.50;;
57858;SDS011;49153;45.568;11.894;2022-08-03T12:55:29;1.40;;;1.30;;
57858;SDS011;49153;45.568;11.894;2022-08-03T12:57:59;1.40;;;1.30;;
57858;SDS011;49153;45.568;11.894;2022-08-03T13:00:25;2.25;;;1.38;;
57858;SDS011;49153;45.568;11.894;2022-08-03T13:02:58;2.08;;;1.38;;
57858;SDS011;49153;45.568;11.894;2022-08-03T13:05:42;2.42;;;1.50;;
57858;SDS011;49153;45.568;11.894;2022-08-03T13:08:22;2.40;;;1.50;;
57858;SDS011;49153;45.568;11.894;2022-08-03T13:10:49;1.60;;;1.50;;
57858;SDS011;49153;45.568;11.894;2022-08-03T13:13:15;1.83;;;1.48;;
57858;SDS011;49153;45.568;11.894;2022-08-03T13:15:40;2.42;;;1.60;;
57858;SDS011;49153;45.568;11.894;2022-08-03T13:18:06;2.10;;;1.75;;
57858;SDS011;49153;45.568;11.894;2022-08-03T13:20:32;1.60;;;1.50;;
57858;SDS011;49153;45.568;11.894;2022-08-03T13:22:58;2.42;;;1.35;;
57858;SDS011;49153;45.568;11.894;2022-08-03T13:25:23;2.13;;;1.58;;
57858;SDS011;49153;45.568;11.894;2022-08-03T13:27:49;1.80;;;1.70;;
57858;SDS011;49153;45.568;11.894;2022-08-03T13:30:16;1.70;;;1.60;;
57858;SDS011;49153;45.568;11.894;2022-08-03T13:32:42;1.95;;;1.75;;
57858;SDS011;49153;45.568;11.894;2022-08-03T13:35:09;1.98;;;1.63;;
57858;SDS011;49153;45.568;11.894;2022-08-03T13:37:35;1.80;;;1.70;;
57858;SDS011;49153;45.568;11.894;2022-08-03T13:40:02;1.85;;;1.75;;
57858;SDS011;49153;45.568;11.894;2022-08-03T13:42:29;1.67;;;1.55;;
57858;SDS011;49153;45.568;11.894;2022-08-03T13:44:56;2.85;;;1.50;;
57858;SDS011;49153;45.568;11.894;2022-08-03T13:47:22;1.75;;;1.65;;
57858;SDS011;49153;45.568;11.894;2022-08-03T13:49:47;1.60;;;1.50;;
57858;SDS011;49153;45.568;11.894;2022-08-03T13:52:15;2.50;;;1.73;;
57858;SDS011;49153;45.568;11.894;2022-08-03T13:54:40;3.63;;;2.33;;
57858;SDS011;49153;45.568;11.894;2022-08-03T13:57:06;2.55;;;2.35;;
57858;SDS011;49153;45.568;11.894;2022-08-03T13:59:40;2.65;;;2.45;;
57858;SDS011;49153;45.568;11.894;2022-08-03T14:02:05;3.15;;;2.15;;
57858;SDS011;49153;45.568;11.894;2022-08-03T14:04:31;2.20;;;2.00;;
57858;SDS011;49153;45.568;11.894;2022-08-03T14:06:56;3.30;;;2.38;;
57858;SDS011;49153;45.568;11.894;2022-08-03T14:09:22;3.15;;;2.40;;
57858;SDS011;49153;45.568;11.894;2022-08-03T14:11:47;2.30;;;2.10;;
57858;SDS011;49153;45.568;11.894;2022-08-03T14:14:13;3.08;;;2.40;;
57858;SDS011;49153;45.568;11.894;2022-08-03T14:16:38;2.55;;;2.30;;
57858;SDS011;49153;45.568;11.894;2022-08-03T14:19:04;3.25;;;2.45;;
57858;SDS011;49153;45.568;11.894;2022-08-03T14:21:39;2.80;;;2.30;;
57858;SDS011;49153;45.568;11.894;2022-08-03T14:24:05;2.42;;;2.30;;
57858;SDS011;49153;45.568;11.894;2022-08-03T14:26:31;3.33;;;2.70;;
57858;SDS011;49153;45.568;11.894;2022-08-03T14:28:56;2.60;;;2.40;;
57858;SDS011;49153;45.568;11.894;2022-08-03T14:31:22;4.10;;;2.40;;
57858;SDS011;49153;45.568;11.894;2022-08-03T14:33:47;3.33;;;2.38;;
57858;SDS011;49153;45.568;11.894;2022-08-03T14:36:13;3.35;;;2.03;;
57858;SDS011;49153;45.568;11.894;2022-08-03T14:38:38;2.85;;;2.10;;
57858;SDS011;49153;45.568;11.894;2022-08-03T14:41:04;3.60;;;2.45;;
57858;SDS011;49153;45.568;11.894;2022-08-03T14:43:29;2.65;;;2.13;;
57858;SDS011;49153;45.568;11.894;2022-08-03T14:45:54;3.05;;;2.10;;
57858;SDS011;49153;45.568;11.894;2022-08-03T14:48:20;3.97;;;2.40;;
57858;SDS011;49153;45.568;11.894;2022-08-03T14:50:47;2.67;;;2.30;;
57858;SDS011;49153;45.568;11.894;2022-08-03T14:53:12;3.80;;;2.10;;
57858;SDS011;49153;45.568;11.894;2022-08-03T14:55:38;2.47;;;2.20;;
57858;SDS011;49153;45.568;11.894;2022-08-03T14:58:04;2.33;;;2.13;;
57858;SDS011;49153;45.568;11.894;2022-08-03T15:00:31;2.28;;;2.05;;
57858;SDS011;49153;45.568;11.894;2022-08-03T15:02:57;4.57;;;1.92;;
57858;SDS011;49153;45.568;11.894;2022-08-03T15:05:22;2.30;;;2.05;;
57858;SDS011;49153;45.568;11.894;2022-08-03T15:07:57;4.10;;;2.00;;
57858;SDS011;49153;45.568;11.894;2022-08-03T15:10:22;4.40;;;1.90;;
57858;SDS011;49153;45.568;11.894;2022-08-03T15:12:48;2.60;;;2.00;;
57858;SDS011;49153;45.568;11.894;2022-08-03T15:15:13;2.75;;;1.98;;
57858;SDS011;49153;45.568;11.894;2022-08-03T15:17:39;5.07;;;1.85;;
57858;SDS011;49153;45.568;11.894;2022-08-03T15:20:04;2.20;;;2.00;;
57858;SDS011;49153;45.568;11.894;2022-08-03T15:22:30;3.90;;;2.10;;
57858;SDS011;49153;45.568;11.894;2022-08-03T15:24:56;2.10;;;1.90;;
57858;SDS011;49153;45.568;11.894;2022-08-03T15:27:22;2.00;;;1.90;;
57858;SDS011;49153;45.568;11.894;2022-08-03T15:29:47;1.98;;;1.85;;
57858;SDS011;49153;45.568;11.894;2022-08-03T15:32:13;2.42;;;1.77;;
57858;SDS011;49153;45.568;11.894;2022-08-03T15:34:38;1.88;;;1.77;;